Terminal Aerodrome Forecast
Issued by NWS

Current Version | Previous Version | Text Only | Print | Product List | Glossary Off
Versions: 1 2 3 4 5 6 7 8 9 10 11 12 13 14 15

237
FTUS41 KPBZ 221513 AAA
TAFMGW
TAF AMD
KMGW 221513Z 2215/2312 02009KT P6SM OVC015
     FM221900 01008KT P6SM -RA OVC035
     FM222100 01008KT P6SM VCSH OVC040
     FM230300 05006KT P6SM VCSH BKN080
     FM230800 06006KT P6SM BKN060=

USA.gov is the U.S. government's official web portal to all federal, state and local government web resources and services.